Time;durP1;ratioP1;P1;durP2;ratioP2;P2;SDS_P1;SDS_P2;PMS_P1;PMS_P2;Temp;Humidity;BMP_temperature;BMP_pressure;BME280_temperature;BME280_humidity;BME280_pressure;Samples;Min_cycle;Max_cycle;Signal;HPM_P1;HPM_P2
2022/11/27 00:01:44;;;;;;;18.73;15.10;;;;;;;;;;5072781;28;20049;-74
2022/11/27 00:04:10;;;;;;;18.67;13.82;;;;;;;;;;5053979;28;20035;-75
2022/11/27 00:06:37;;;;;;;10.02;8.55;;;;;;;;;;5072033;28;20412;-74
2022/11/27 00:09:04;;;;;;;22.55;16.35;;;;;;;;;;5071847;28;20032;-74
2022/11/27 00:11:30;;;;;;;13.65;10.20;;;;;;;;;;5053495;28;20562;-74
2022/11/27 00:13:56;;;;;;;11.18;10.07;;;;;;;;;;5053798;28;20028;-74
2022/11/27 00:16:22;;;;;;;14.27;10.88;;;;;;;;;;5071274;28;20524;-75
2022/11/27 00:18:48;;;;;;;10.80;8.63;;;;;;;;;;5055538;28;20500;-74
2022/11/27 00:21:16;;;;;;;6.60;5.35;;;;;;;;;;5052884;28;20052;-74
2022/11/27 00:23:42;;;;;;;9.98;8.60;;;;;;;;;;5036897;28;20035;-75
2022/11/27 00:26:07;;;;;;;16.50;12.30;;;;;;;;;;5071350;28;20036;-75
2022/11/27 00:28:33;;;;;;;11.73;9.77;;;;;;;;;;5071293;28;20037;-74
2022/11/27 00:31:00;;;;;;;14.25;10.55;;;;;;;;;;5071226;28;20044;-74
2022/11/27 00:33:26;;;;;;;17.30;12.30;;;;;;;;;;5069772;28;20404;-75
2022/11/27 00:35:52;;;;;;;10.35;7.75;;;;;;;;;;5036719;28;20037;-75
2022/11/27 00:38:19;;;;;;;14.10;9.73;;;;;;;;;;5053021;28;20538;-74
2022/11/27 00:40:45;;;;;;;17.80;11.75;;;;;;;;;;5053168;28;20078;-74
2022/11/27 00:43:11;;;;;;;11.60;9.25;;;;;;;;;;5053146;28;20048;-74
2022/11/27 00:45:37;;;;;;;29.20;19.73;;;;;;;;;;5071688;28;20044;-75
2022/11/27 00:48:03;;;;;;;22.42;16.33;;;;;;;;;;5053724;28;20588;-75
2022/11/27 00:50:31;;;;;;;12.15;9.77;;;;;;;;;;5053403;28;20087;-74
2022/11/27 00:52:57;;;;;;;21.02;15.07;;;;;;;;;;5053889;28;20442;-75
2022/11/27 00:55:23;;;;;;;22.58;16.40;;;;;;;;;;5072653;28;20052;-75
2022/11/27 00:57:49;;;;;;;16.25;11.18;;;;;;;;;;5076473;28;20036;-75
2022/11/27 01:00:16;;;;;;;20.65;15.02;;;;;;;;;;5059367;28;20141;-75
2022/11/27 01:02:42;;;;;;;13.93;11.38;;;;;;;;;;5059298;28;20039;-74
2022/11/27 01:05:08;;;;;;;17.30;12.13;;;;;;;;;;5077082;28;20107;-74
2022/11/27 01:07:34;;;;;;;20.35;12.70;;;;;;;;;;5056810;28;20037;-74
2022/11/27 01:10:00;;;;;;;16.17;11.27;;;;;;;;;;5057412;28;20040;-74
2022/11/27 01:12:26;;;;;;;24.83;17.17;;;;;;;;;;5076085;28;20588;-74
2022/11/27 01:14:52;;;;;;;19.67;15.88;;;;;;;;;;5076621;28;20032;-73
2022/11/27 01:17:17;;;;;;;15.88;10.90;;;;;;;;;;5078871;28;20093;-75
2022/11/27 01:19:43;;;;;;;26.98;19.60;;;;;;;;;;5075556;28;20044;-76
2022/11/27 01:22:09;;;;;;;11.05;9.27;;;;;;;;;;5075736;28;20048;-75
2022/11/27 01:24:36;;;;;;;15.05;10.38;;;;;;;;;;5056318;28;20068;-74
2022/11/27 01:27:01;;;;;;;16.50;12.80;;;;;;;;;;5057340;28;20078;-75
2022/11/27 01:29:28;;;;;;;25.88;17.75;;;;;;;;;;5046036;28;20032;-75
2022/11/27 01:31:53;;;;;;;15.73;12.30;;;;;;;;;;5058083;28;20032;-75
2022/11/27 01:34:19;;;;;;;24.35;15.65;;;;;;;;;;5058487;28;20035;-73
2022/11/27 01:36:45;;;;;;;26.45;15.15;;;;;;;;;;5077955;28;20040;-74
2022/11/27 01:39:15;;;;;;;24.27;16.17;;;;;;;;;;5075031;28;20040;-74
2022/11/27 01:41:42;;;;;;;23.20;14.25;;;;;;;;;;5056169;28;20056;-74
2022/11/27 01:44:24;;;;;;;24.50;16.27;;;;;;;;;;5051883;28;20512;-74
2022/11/27 01:47:10;;;;;;;22.70;13.30;;;;;;;;;;5065241;28;20039;-74
2022/11/27 01:49:37;;;;;;;20.60;13.15;;;;;;;;;;5083739;28;20036;-73
2022/11/27 01:52:14;;;;;;;12.88;9.60;;;;;;;;;;5061363;28;20055;-74
2022/11/27 01:54:40;;;;;;;19.58;13.20;;;;;;;;;;5043488;28;20028;-75
2022/11/27 01:57:07;;;;;;;13.32;11.38;;;;;;;;;;5042343;28;20060;-73
2022/11/27 01:59:33;;;;;;;17.25;13.15;;;;;;;;;;5057976;28;20044;-75
2022/11/27 02:01:59;;;;;;;11.07;9.43;;;;;;;;;;5077725;28;20504;-74
2022/11/27 02:04:25;;;;;;;23.38;13.00;;;;;;;;;;5077569;28;20036;-74
2022/11/27 02:06:51;;;;;;;35.30;19.90;;;;;;;;;;5075915;28;20032;-74
2022/11/27 02:09:17;;;;;;;28.42;17.48;;;;;;;;;;5073175;28;20115;-73
2022/11/27 02:12:03;;;;;;;32.05;18.58;;;;;;;;;;5055362;28;20047;-74
2022/11/27 02:15:08;;;;;;;13.70;9.77;;;;;;;;;;5029417;28;20523;-74
2022/11/27 02:17:37;;;;;;;21.23;14.13;;;;;;;;;;5076330;28;20052;-76
2022/11/27 02:20:16;;;;;;;33.20;20.33;;;;;;;;;;5055161;28;20074;-74
2022/11/27 02:22:45;;;;;;;17.48;12.20;;;;;;;;;;5037673;28;20044;-75
2022/11/27 02:25:30;;;;;;;17.70;13.02;;;;;;;;;;5053734;28;20032;-74
2022/11/27 02:28:05;;;;;;;7.30;6.45;;;;;;;;;;5036743;28;20577;-73
2022/11/27 02:30:32;;;;;;;13.77;9.15;;;;;;;;;;5053260;28;20036;-74
2022/11/27 02:32:59;;;;;;;21.40;14.32;;;;;;;;;;5070859;28;20063;-73
2022/11/27 02:35:27;;;;;;;30.33;20.60;;;;;;;;;;5052695;28;20056;-73
2022/11/27 02:37:57;;;;;;;13.68;10.25;;;;;;;;;;5052195;28;20025;-73
2022/11/27 02:40:26;;;;;;;15.30;12.05;;;;;;;;;;5051488;28;20056;-73
2022/11/27 02:42:54;;;;;;;12.65;9.80;;;;;;;;;;5052855;28;20052;-73
2022/11/27 02:45:22;;;;;;;16.65;12.23;;;;;;;;;;5055320;28;20549;-73
2022/11/27 02:47:48;;;;;;;19.10;13.48;;;;;;;;;;5073116;28;20075;-73
2022/11/27 02:50:15;;;;;;;10.38;9.27;;;;;;;;;;5023084;28;20040;-74
2022/11/27 02:52:41;;;;;;;11.93;9.80;;;;;;;;;;5038616;28;20028;-73
2022/11/27 02:55:08;;;;;;;17.38;13.20;;;;;;;;;;5038839;28;20610;-73
2022/11/27 02:57:34;;;;;;;16.63;12.57;;;;;;;;;;5055399;28;20123;-74
2022/11/27 03:00:00;;;;;;;11.40;8.27;;;;;;;;;;5038783;28;20036;-74
2022/11/27 03:02:34;;;;;;;12.95;10.10;;;;;;;;;;5055362;28;20069;-73
2022/11/27 03:05:00;;;;;;;8.75;7.95;;;;;;;;;;5022107;28;20401;-73
2022/11/27 03:07:31;;;;;;;11.48;8.15;;;;;;;;;;5054867;28;20033;-73
2022/11/27 03:09:59;;;;;;;12.98;11.48;;;;;;;;;;5072850;28;20094;-72
2022/11/27 03:12:25;;;;;;;14.35;10.13;;;;;;;;;;5038647;28;20040;-73
2022/11/27 03:14:51;;;;;;;7.57;6.68;;;;;;;;;;5072780;28;20109;-73
2022/11/27 03:17:28;;;;;;;13.07;10.02;;;;;;;;;;5072824;28;20447;-71
2022/11/27 03:19:56;;;;;;;15.27;12.90;;;;;;;;;;5054826;28;20565;-73
2022/11/27 03:22:22;;;;;;;9.25;8.35;;;;;;;;;;5054675;28;20048;-73
2022/11/27 03:24:48;;;;;;;9.63;8.65;;;;;;;;;;5072351;28;20094;-73
2022/11/27 03:27:17;;;;;;;15.98;11.50;;;;;;;;;;5072580;28;20032;-73
2022/11/27 03:29:47;;;;;;;13.52;11.18;;;;;;;;;;5072251;28;20040;-73
2022/11/27 03:32:13;;;;;;;10.27;7.53;;;;;;;;;;5054695;28;20070;-73
2022/11/27 03:34:39;;;;;;;10.98;9.55;;;;;;;;;;5072148;28;20032;-73
2022/11/27 03:37:05;;;;;;;8.27;7.47;;;;;;;;;;5054678;28;20420;-73
2022/11/27 03:39:31;;;;;;;9.32;7.43;;;;;;;;;;5054234;28;20534;-73
2022/11/27 03:42:18;;;;;;;8.93;7.15;;;;;;;;;;5071808;28;20048;-74
2022/11/27 03:44:46;;;;;;;9.50;7.60;;;;;;;;;;5034592;28;20056;-74
2022/11/27 03:47:23;;;;;;;10.07;7.57;;;;;;;;;;5052048;28;20068;-72
2022/11/27 03:50:07;;;;;;;12.45;7.53;;;;;;;;;;5034159;28;20029;-73
2022/11/27 03:52:52;;;;;;;9.98;8.80;;;;;;;;;;5059706;28;20057;-73
2022/11/27 03:55:50;;;;;;;8.85;7.95;;;;;;;;;;5071683;28;20032;-72
2022/11/27 03:58:25;;;;;;;10.50;9.50;;;;;;;;;;5010222;28;20045;-70
2022/11/27 04:00:51;;;;;;;9.35;7.18;;;;;;;;;;5053938;28;20048;-73
2022/11/27 04:03:21;;;;;;;9.75;6.90;;;;;;;;;;5071719;28;20139;-72
2022/11/27 04:05:47;;;;;;;12.85;10.85;;;;;;;;;;5053686;28;20159;-72
2022/11/27 04:08:13;;;;;;;12.18;10.00;;;;;;;;;;5071517;28;20119;-72
2022/11/27 04:10:39;;;;;;;13.57;11.43;;;;;;;;;;5071584;28;20147;-72
2022/11/27 04:13:04;;;;;;;11.57;8.52;;;;;;;;;;5071553;28;20508;-73
2022/11/27 04:15:31;;;;;;;9.75;7.70;;;;;;;;;;5053547;28;20052;-72
2022/11/27 04:17:57;;;;;;;14.90;12.18;;;;;;;;;;5071486;28;20546;-72
2022/11/27 04:20:22;;;;;;;10.63;9.45;;;;;;;;;;5053477;28;20040;-72
2022/11/27 04:22:48;;;;;;;7.75;6.90;;;;;;;;;;5053207;28;20036;-72
2022/11/27 04:25:14;;;;;;;12.88;11.57;;;;;;;;;;5071324;28;20454;-72
2022/11/27 04:27:41;;;;;;;9.38;7.28;;;;;;;;;;5071039;28;20455;-72
2022/11/27 04:30:07;;;;;;;11.43;9.98;;;;;;;;;;5071117;28;20090;-72
2022/11/27 04:32:32;;;;;;;12.80;11.15;;;;;;;;;;5052961;28;20036;-72
2022/11/27 04:34:59;;;;;;;11.15;9.85;;;;;;;;;;5070960;28;20040;-72
2022/11/27 04:37:25;;;;;;;10.68;7.30;;;;;;;;;;5071211;28;20528;-72
2022/11/27 04:39:54;;;;;;;13.85;12.45;;;;;;;;;;5070867;28;20032;-72
2022/11/27 04:42:20;;;;;;;11.95;10.68;;;;;;;;;;5071183;28;20098;-71
2022/11/27 04:44:46;;;;;;;14.15;10.95;;;;;;;;;;5052806;28;20071;-72
2022/11/27 04:47:12;;;;;;;9.30;6.85;;;;;;;;;;5052748;28;20058;-72
2022/11/27 04:49:38;;;;;;;10.55;9.55;;;;;;;;;;5070425;28;20119;-72
2022/11/27 04:52:04;;;;;;;14.00;9.95;;;;;;;;;;5052853;28;20052;-71
2022/11/27 04:54:30;;;;;;;6.88;6.18;;;;;;;;;;5070543;28;20036;-72
2022/11/27 04:56:56;;;;;;;11.95;5.43;;;;;;;;;;5070689;28;20555;-72
2022/11/27 04:59:22;;;;;;;10.55;9.52;;;;;;;;;;5070580;28;20063;-71
2022/11/27 05:01:48;;;;;;;2.22;2.13;;;;;;;;;;5070181;28;20059;-72
2022/11/27 05:04:14;;;;;;;6.88;6.18;;;;;;;;;;5070529;28;20059;-73
2022/11/27 05:06:43;;;;;;;13.77;12.32;;;;;;;;;;5051743;28;20500;-72
2022/11/27 05:09:09;;;;;;;9.98;7.40;;;;;;;;;;5036388;28;20071;-72
2022/11/27 05:11:35;;;;;;;8.90;7.13;;;;;;;;;;5068898;28;20438;-72
2022/11/27 05:14:17;;;;;;;13.35;9.68;;;;;;;;;;5052354;28;20044;-72
2022/11/27 05:16:43;;;;;;;17.10;13.40;;;;;;;;;;5054581;28;20519;-73
2022/11/27 05:19:09;;;;;;;9.70;7.43;;;;;;;;;;5052085;28;20033;-73
2022/11/27 05:21:36;;;;;;;16.05;10.73;;;;;;;;;;5069953;28;20045;-72
2022/11/27 05:24:02;;;;;;;9.95;8.93;;;;;;;;;;5070112;28;20100;-73
2022/11/27 05:26:28;;;;;;;10.93;8.80;;;;;;;;;;5052190;28;20100;-73
2022/11/27 05:28:53;;;;;;;16.27;13.40;;;;;;;;;;5070078;28;20540;-73
2022/11/27 05:31:20;;;;;;;14.23;11.70;;;;;;;;;;5069886;28;20071;-73
2022/11/27 05:33:46;;;;;;;13.55;11.27;;;;;;;;;;5069886;28;20123;-73
2022/11/27 05:36:12;;;;;;;13.50;9.52;;;;;;;;;;5070042;28;20044;-73
2022/11/27 05:38:38;;;;;;;8.23;7.13;;;;;;;;;;5051552;28;20566;-73
2022/11/27 05:41:04;;;;;;;15.45;13.43;;;;;;;;;;5051576;28;20048;-73
2022/11/27 05:43:30;;;;;;;7.70;6.97;;;;;;;;;;5069221;28;20056;-73
2022/11/27 05:45:59;;;;;;;16.45;12.02;;;;;;;;;;5019058;28;20038;-72
2022/11/27 05:48:28;;;;;;;14.70;10.07;;;;;;;;;;5069824;28;20036;-73
2022/11/27 05:50:54;;;;;;;12.45;10.50;;;;;;;;;;5047370;28;20519;-73
2022/11/27 05:53:19;;;;;;;11.60;8.98;;;;;;;;;;5065858;28;20067;-73
2022/11/27 05:55:46;;;;;;;19.05;11.57;;;;;;;;;;5041422;28;20040;-74
2022/11/27 05:58:11;;;;;;;8.52;6.20;;;;;;;;;;5058251;28;20037;-73
2022/11/27 06:00:43;;;;;;;8.77;7.95;;;;;;;;;;5061356;28;20040;-73
2022/11/27 06:03:45;;;;;;;13.48;10.90;;;;;;;;;;5039279;28;20618;-74
2022/11/27 06:06:15;;;;;;;19.73;16.67;;;;;;;;;;5001653;28;20036;-74
2022/11/27 06:08:41;;;;;;;10.82;7.25;;;;;;;;;;5018232;28;20036;-74
2022/11/27 06:11:16;;;;;;;15.80;11.85;;;;;;;;;;5037408;28;20039;-73
2022/11/27 06:13:48;;;;;;;13.27;10.68;;;;;;;;;;5004064;28;20044;-74
2022/11/27 06:16:21;;;;;;;10.38;8.98;;;;;;;;;;5017097;28;20139;-74
2022/11/27 06:18:51;;;;;;;13.38;10.63;;;;;;;;;;5034855;28;20116;-73
2022/11/27 06:21:19;;;;;;;15.25;12.18;;;;;;;;;;5014393;28;20060;-74
2022/11/27 06:23:45;;;;;;;15.45;11.60;;;;;;;;;;5011887;28;20043;-76
2022/11/27 06:26:20;;;;;;;13.38;8.82;;;;;;;;;;5017857;28;20583;-77
2022/11/27 06:28:52;;;;;;;8.95;8.00;;;;;;;;;;5017495;28;20041;-77
2022/11/27 06:31:19;;;;;;;9.93;8.18;;;;;;;;;;5016892;28;20036;-77
2022/11/27 06:33:49;;;;;;;9.73;7.50;;;;;;;;;;5032659;28;20041;-77
2022/11/27 06:36:19;;;;;;;15.63;11.80;;;;;;;;;;5032530;28;20135;-77
2022/11/27 06:38:45;;;;;;;16.33;9.45;;;;;;;;;;5033698;28;20740;-77
2022/11/27 06:44:59;;;;;;;15.13;12.93;;;;;;;;;;5047408;28;20180;-77
2022/11/27 06:47:34;;;;;;;8.23;7.10;;;;;;;;;;5031167;28;20508;-77
2022/11/27 06:50:00;;;;;;;6.82;6.05;;;;;;;;;;4997850;28;20230;-74
2022/11/27 06:52:26;;;;;;;8.60;7.70;;;;;;;;;;5014802;28;20528;-75
2022/11/27 06:54:53;;;;;;;12.07;10.32;;;;;;;;;;5032965;28;20044;-74
2022/11/27 06:57:21;;;;;;;13.35;11.30;;;;;;;;;;5034091;28;20097;-73
2022/11/27 06:59:54;;;;;;;7.07;6.28;;;;;;;;;;5035086;28;20053;-74
2022/11/27 07:02:20;;;;;;;8.88;7.35;;;;;;;;;;5015027;28;20421;-73
2022/11/27 07:04:46;;;;;;;10.60;7.55;;;;;;;;;;5064166;28;20565;-75
2022/11/27 07:07:16;;;;;;;9.15;8.25;;;;;;;;;;5046382;28;20044;-74
2022/11/27 07:09:44;;;;;;;15.75;13.30;;;;;;;;;;5047635;28;20079;-74
2022/11/27 07:12:13;;;;;;;13.48;8.07;;;;;;;;;;5065386;28;20125;-73
2022/11/27 07:14:40;;;;;;;10.07;8.70;;;;;;;;;;5047728;28;20137;-74
2022/11/27 07:17:06;;;;;;;13.40;10.68;;;;;;;;;;5029072;28;20036;-74
2022/11/27 07:19:35;;;;;;;11.30;7.55;;;;;;;;;;5052843;28;20037;-75
2022/11/27 07:22:02;;;;;;;13.60;7.60;;;;;;;;;;5025759;28;20183;-75
2022/11/27 07:24:27;;;;;;;11.05;9.48;;;;;;;;;;5067228;28;20616;-75
2022/11/27 07:26:56;;;;;;;10.45;9.32;;;;;;;;;;5049887;28;20060;-75
2022/11/27 07:29:21;;;;;;;13.15;11.80;;;;;;;;;;5035352;28;20087;-74
2022/11/27 07:31:50;;;;;;;8.75;7.40;;;;;;;;;;5053756;28;20197;-75
2022/11/27 07:34:16;;;;;;;18.70;13.02;;;;;;;;;;5070723;28;20125;-75
2022/11/27 07:36:42;;;;;;;8.40;7.60;;;;;;;;;;5051694;28;21236;-74
2022/11/27 07:39:46;;;;;;;10.27;8.40;;;;;;;;;;5052542;28;20503;-79
2022/11/27 07:42:22;;;;;;;12.70;11.25;;;;;;;;;;5052431;28;20064;-74
2022/11/27 07:44:48;;;;;;;8.75;6.97;;;;;;;;;;5074833;28;20131;-74
2022/11/27 07:47:13;;;;;;;14.43;11.40;;;;;;;;;;5087379;28;20311;-75
2022/11/27 07:49:39;;;;;;;8.82;6.70;;;;;;;;;;5052411;28;20603;-75
2022/11/27 07:52:05;;;;;;;8.15;7.32;;;;;;;;;;5078388;28;20123;-74
2022/11/27 07:54:33;;;;;;;10.15;8.23;;;;;;;;;;5090454;28;20036;-74
2022/11/27 07:56:59;;;;;;;15.10;11.75;;;;;;;;;;5090668;28;20150;-74
2022/11/27 07:59:25;;;;;;;14.20;10.32;;;;;;;;;;5072446;28;20119;-74
2022/11/27 08:01:51;;;;;;;13.00;10.40;;;;;;;;;;5053719;28;20048;-74
2022/11/27 08:04:17;;;;;;;8.18;7.40;;;;;;;;;;5070074;28;20457;-74
2022/11/27 08:06:42;;;;;;;7.05;6.38;;;;;;;;;;5070059;28;20043;-74
2022/11/27 08:09:09;;;;;;;15.00;11.75;;;;;;;;;;5070089;28;20492;-76
2022/11/27 08:11:34;;;;;;;8.60;5.35;;;;;;;;;;5030972;28;20037;-75
2022/11/27 08:14:01;;;;;;;7.70;6.20;;;;;;;;;;5005514;28;20029;-75
2022/11/27 08:16:27;;;;;;;9.65;6.95;;;;;;;;;;5041362;28;20037;-75
2022/11/27 08:18:53;;;;;;;10.80;7.85;;;;;;;;;;5040176;28;20435;-75
2022/11/27 08:21:19;;;;;;;9.88;7.03;;;;;;;;;;5003092;28;20324;-76
2022/11/27 08:23:48;;;;;;;8.85;7.88;;;;;;;;;;5042304;28;20241;-76
2022/11/27 08:26:18;;;;;;;8.43;7.47;;;;;;;;;;5039552;28;20446;-75
2022/11/27 08:28:44;;;;;;;12.95;7.68;;;;;;;;;;5039682;28;20032;-75
2022/11/27 08:31:10;;;;;;;8.82;7.00;;;;;;;;;;5044829;28;21487;-74
2022/11/27 08:33:36;;;;;;;5.95;5.35;;;;;;;;;;5052914;28;20052;-74
2022/11/27 08:36:02;;;;;;;9.90;7.57;;;;;;;;;;5035713;28;20033;-73
2022/11/27 08:38:38;;;;;;;7.68;6.53;;;;;;;;;;5035578;28;20059;-76
2022/11/27 08:41:07;;;;;;;8.63;7.20;;;;;;;;;;5049767;28;20130;-75
2022/11/27 08:43:33;;;;;;;12.93;11.63;;;;;;;;;;5041079;28;20132;-78
2022/11/27 08:45:58;;;;;;;8.40;7.28;;;;;;;;;;5039170;28;20133;-76
2022/11/27 08:48:24;;;;;;;8.00;6.25;;;;;;;;;;5036686;28;20084;-75
2022/11/27 08:50:50;;;;;;;7.15;6.45;;;;;;;;;;5025428;28;20039;-76
2022/11/27 08:53:16;;;;;;;7.03;6.32;;;;;;;;;;5039098;28;20155;-74
2022/11/27 08:55:45;;;;;;;6.80;6.20;;;;;;;;;;5018978;28;20691;-76
2022/11/27 08:58:11;;;;;;;10.18;9.13;;;;;;;;;;5020529;28;20466;-75
2022/11/27 09:00:37;;;;;;;7.30;6.07;;;;;;;;;;5033830;28;20063;-75
2022/11/27 09:03:03;;;;;;;11.63;8.30;;;;;;;;;;5018159;28;20124;-74
2022/11/27 09:05:29;;;;;;;11.48;8.80;;;;;;;;;;4999312;28;20032;-74
2022/11/27 09:07:56;;;;;;;7.22;6.43;;;;;;;;;;5034889;28;20035;-75
2022/11/27 09:10:22;;;;;;;8.82;8.02;;;;;;;;;;5037712;28;20041;-75
2022/11/27 09:12:48;;;;;;;9.63;6.45;;;;;;;;;;5015974;28;20047;-75
2022/11/27 09:15:14;;;;;;;6.30;5.70;;;;;;;;;;5035150;28;20834;-75
2022/11/27 09:17:40;;;;;;;7.82;7.07;;;;;;;;;;5036985;28;20115;-75
2022/11/27 09:20:06;;;;;;;7.60;6.88;;;;;;;;;;5036360;28;21846;-75
2022/11/27 09:22:32;;;;;;;7.85;7.07;;;;;;;;;;5017104;28;20056;-75
2022/11/27 09:24:59;;;;;;;6.70;6.00;;;;;;;;;;5001239;28;20040;-75
2022/11/27 09:27:26;;;;;;;5.38;4.85;;;;;;;;;;5035648;28;20043;-75
2022/11/27 09:29:52;;;;;;;5.00;4.68;;;;;;;;;;5017472;28;20037;-75
2022/11/27 09:32:21;;;;;;;5.55;4.88;;;;;;;;;;5036355;28;20076;-77
2022/11/27 09:34:50;;;;;;;7.50;5.37;;;;;;;;;;5039233;28;20033;-74
2022/11/27 09:37:27;;;;;;;7.78;6.68;;;;;;;;;;5038229;28;20303;-78
2022/11/27 09:39:56;;;;;;;8.95;8.15;;;;;;;;;;5017907;28;20035;-76
2022/11/27 09:43:10;;;;;;;8.40;7.63;;;;;;;;;;5015201;28;20457;-76
2022/11/27 09:45:42;;;;;;;5.88;5.28;;;;;;;;;;4984556;28;20074;-75
2022/11/27 09:48:10;;;;;;;9.25;6.28;;;;;;;;;;5025726;28;20154;-75
2022/11/27 09:50:38;;;;;;;6.38;5.82;;;;;;;;;;5016337;28;20408;-75
2022/11/27 09:53:30;;;;;;;7.05;6.35;;;;;;;;;;5014659;28;20594;-76
2022/11/27 09:55:57;;;;;;;6.35;5.85;;;;;;;;;;4999569;28;20076;-76
2022/11/27 09:58:30;;;;;;;5.70;5.20;;;;;;;;;;4976870;28;20036;-77
2022/11/27 10:00:56;;;;;;;7.93;7.18;;;;;;;;;;5036086;28;20044;-77
2022/11/27 10:03:25;;;;;;;9.35;7.78;;;;;;;;;;5015762;28;20759;-78
2022/11/27 10:06:20;;;;;;;5.32;4.82;;;;;;;;;;5037088;28;20036;-78
2022/11/27 10:08:56;;;;;;;9.25;8.35;;;;;;;;;;5024707;28;20045;-77
2022/11/27 10:11:41;;;;;;;4.78;4.38;;;;;;;;;;5037601;28;20267;-78
2022/11/27 10:15:06;;;;;;;4.20;3.83;;;;;;;;;;5037279;28;20103;-77
2022/11/27 10:17:39;;;;;;;6.75;6.10;;;;;;;;;;5030319;28;20025;-77
2022/11/27 10:23:45;;;;;;;6.22;5.63;;;;;;;;;;5018286;28;20127;-76
2022/11/27 10:26:11;;;;;;;6.68;6.07;;;;;;;;;;5019793;28;20043;-77
2022/11/27 10:28:41;;;;;;;6.45;5.88;;;;;;;;;;5024845;28;20072;-76
2022/11/27 10:31:07;;;;;;;7.93;7.13;;;;;;;;;;5009801;28;20175;-76
2022/11/27 10:33:44;;;;;;;9.82;6.38;;;;;;;;;;5000742;28;20241;-76
2022/11/27 10:36:12;;;;;;;9.65;6.68;;;;;;;;;;5000052;28;20216;-78
2022/11/27 10:38:42;;;;;;;6.95;6.22;;;;;;;;;;5034725;28;20416;-77
2022/11/27 10:41:10;;;;;;;5.70;5.20;;;;;;;;;;5022500;28;20118;-75
2022/11/27 10:43:36;;;;;;;7.53;6.80;;;;;;;;;;5018876;28;20579;-77
2022/11/27 10:46:04;;;;;;;8.77;7.97;;;;;;;;;;5036329;28;20089;-77
2022/11/27 10:48:30;;;;;;;10.77;8.85;;;;;;;;;;5000744;28;20037;-78
2022/11/27 10:51:22;;;;;;;8.65;7.65;;;;;;;;;;5018834;28;20126;-75
2022/11/27 10:54:04;;;;;;;7.63;6.68;;;;;;;;;;5017741;28;20047;-75
2022/11/27 10:56:42;;;;;;;6.07;5.47;;;;;;;;;;5021017;28;20168;-75
2022/11/27 10:59:10;;;;;;;10.38;8.68;;;;;;;;;;5034437;28;20040;-76
2022/11/27 11:01:46;;;;;;;12.50;9.15;;;;;;;;;;5021777;28;20127;-75
2022/11/27 11:04:14;;;;;;;11.75;10.07;;;;;;;;;;5034529;28;20037;-75
2022/11/27 11:06:41;;;;;;;9.75;7.85;;;;;;;;;;5018161;28;20045;-75
2022/11/27 11:09:17;;;;;;;11.70;10.00;;;;;;;;;;5038132;28;20033;-75
2022/11/27 11:11:44;;;;;;;8.02;6.85;;;;;;;;;;5046643;28;20053;-75
2022/11/27 11:14:24;;;;;;;6.32;5.78;;;;;;;;;;5048871;28;20037;-74
2022/11/27 11:16:50;;;;;;;7.32;6.22;;;;;;;;;;5030673;28;20048;-74
2022/11/27 11:19:21;;;;;;;9.30;7.97;;;;;;;;;;5032258;28;20124;-74
2022/11/27 11:21:47;;;;;;;;;;;;;;;;;;5049596;28;20041;-74
2022/11/27 11:24:14;;;;;;;7.25;6.65;;;;;;;;;;5033278;28;20057;-74
2022/11/27 11:26:44;;;;;;;5.50;5.00;;;;;;;;;;5051795;28;20086;-75
2022/11/27 11:29:24;;;;;;;8.63;7.80;;;;;;;;;;5034496;28;20045;-75
2022/11/27 11:31:49;;;;;;;9.95;8.23;;;;;;;;;;5017499;28;20178;-74
2022/11/27 11:34:22;;;;;;;7.40;6.55;;;;;;;;;;5034330;28;20119;-75
2022/11/27 11:36:54;;;;;;;11.27;10.18;;;;;;;;;;5033832;28;20055;-74
2022/11/27 11:39:21;;;;;;;7.35;6.32;;;;;;;;;;5034154;28;20122;-75
2022/11/27 11:41:50;;;;;;;9.68;8.68;;;;;;;;;;5066771;28;20047;-75
2022/11/27 11:44:25;;;;;;;8.02;6.43;;;;;;;;;;5071494;28;20079;-74
2022/11/27 11:46:52;;;;;;;8.98;8.07;;;;;;;;;;5053532;28;20043;-74
2022/11/27 11:49:21;;;;;;;9.77;8.88;;;;;;;;;;5053673;28;20626;-74
2022/11/27 11:51:50;;;;;;;7.72;5.88;;;;;;;;;;5053419;28;20041;-75
2022/11/27 11:54:23;;;;;;;4.63;4.07;;;;;;;;;;5036935;28;20032;-75
2022/11/27 11:56:51;;;;;;;7.88;6.18;;;;;;;;;;5071250;28;20075;-75
2022/11/27 11:59:21;;;;;;;6.88;4.85;;;;;;;;;;5037524;28;20523;-74
2022/11/27 12:01:52;;;;;;;8.50;6.53;;;;;;;;;;5069249;28;20083;-75
2022/11/27 12:04:25;;;;;;;11.73;10.60;;;;;;;;;;5053470;28;20025;-75
2022/11/27 12:07:00;;;;;;;12.77;11.57;;;;;;;;;;5053427;28;20468;-74
2022/11/27 12:09:26;;;;;;;6.97;5.15;;;;;;;;;;5053248;28;20043;-74
2022/11/27 12:11:55;;;;;;;7.90;6.90;;;;;;;;;;5052365;28;20071;-75
2022/11/27 12:14:30;;;;;;;12.75;9.55;;;;;;;;;;5071085;28;20143;-74
2022/11/27 12:17:03;;;;;;;8.68;7.85;;;;;;;;;;5071121;28;20032;-74
2022/11/27 12:19:44;;;;;;;6.88;6.28;;;;;;;;;;5075979;28;20058;-74
2022/11/27 12:22:16;;;;;;;5.65;5.25;;;;;;;;;;5043060;28;20112;-75
2022/11/27 12:24:58;;;;;;;12.82;11.52;;;;;;;;;;5058748;28;20105;-74
2022/11/27 12:27:36;;;;;;;15.30;13.88;;;;;;;;;;5041024;28;20116;-75
2022/11/27 12:30:07;;;;;;;10.25;9.20;;;;;;;;;;5076352;28;20068;-74
2022/11/27 12:32:33;;;;;;;14.98;12.27;;;;;;;;;;5052098;28;20033;-74
2022/11/27 12:35:14;;;;;;;13.63;12.27;;;;;;;;;;5039025;28;20072;-74
2022/11/27 12:37:59;;;;;;;14.43;8.75;;;;;;;;;;5042204;28;20036;-74
2022/11/27 12:40:31;;;;;;;9.18;8.25;;;;;;;;;;5078863;28;20134;-74
2022/11/27 12:43:00;;;;;;;8.73;5.55;;;;;;;;;;5078861;28;20125;-74
2022/11/27 12:45:27;;;;;;;19.45;15.20;;;;;;;;;;5078672;28;20141;-74
2022/11/27 12:47:54;;;;;;;11.30;8.75;;;;;;;;;;5077964;28;20040;-75
2022/11/27 12:50:33;;;;;;;13.10;9.15;;;;;;;;;;5078113;28;20094;-74
2022/11/27 12:52:59;;;;;;;10.75;7.43;;;;;;;;;;5060085;28;20052;-74
2022/11/27 12:55:25;;;;;;;17.80;10.60;;;;;;;;;;5060408;28;20593;-74
2022/11/27 12:58:05;;;;;;;18.17;15.98;;;;;;;;;;5059666;28;20037;-74
2022/11/27 13:00:31;;;;;;;18.10;13.52;;;;;;;;;;5042199;28;20047;-74
2022/11/27 13:02:58;;;;;;;12.80;9.43;;;;;;;;;;5056590;28;20036;-75
2022/11/27 13:05:28;;;;;;;21.23;15.23;;;;;;;;;;5053425;28;20040;-75
2022/11/27 13:07:55;;;;;;;21.88;14.40;;;;;;;;;;5053323;28;20040;-74
2022/11/27 13:10:30;;;;;;;13.40;9.05;;;;;;;;;;5070952;28;20046;-74
2022/11/27 13:13:08;;;;;;;18.85;12.55;;;;;;;;;;5052483;28;20040;-74
2022/11/27 13:15:37;;;;;;;26.73;19.02;;;;;;;;;;5052786;28;20043;-74
2022/11/27 13:18:07;;;;;;;23.55;16.88;;;;;;;;;;5070458;28;20032;-74
2022/11/27 13:20:34;;;;;;;10.73;7.90;;;;;;;;;;5052362;28;20036;-74
2022/11/27 13:23:00;;;;;;;21.88;16.13;;;;;;;;;;5070146;28;20512;-74
2022/11/27 13:25:26;;;;;;;20.15;13.75;;;;;;;;;;5070127;28;20082;-75
2022/11/27 13:27:52;;;;;;;15.98;11.73;;;;;;;;;;5070213;28;20512;-74
2022/11/27 13:30:22;;;;;;;27.70;18.58;;;;;;;;;;5035094;28;20432;-74
2022/11/27 13:32:50;;;;;;;21.40;15.13;;;;;;;;;;5051748;28;20028;-74
2022/11/27 13:35:21;;;;;;;27.23;18.40;;;;;;;;;;5052146;28;20550;-74
2022/11/27 13:37:48;;;;;;;21.17;12.75;;;;;;;;;;5035494;28;20106;-74
2022/11/27 13:40:14;;;;;;;24.15;18.90;;;;;;;;;;5035060;28;20046;-74
2022/11/27 13:42:44;;;;;;;18.25;13.00;;;;;;;;;;5069861;28;20090;-74
2022/11/27 13:45:19;;;;;;;15.18;9.68;;;;;;;;;;5050382;28;20024;-74
2022/11/27 13:47:47;;;;;;;15.40;10.50;;;;;;;;;;5070062;28;20496;-74
2022/11/27 13:50:14;;;;;;;15.40;12.18;;;;;;;;;;5035912;28;20043;-74
2022/11/27 13:52:55;;;;;;;19.75;12.90;;;;;;;;;;5051911;28;20520;-74
2022/11/27 13:55:48;;;;;;;13.43;8.57;;;;;;;;;;5051525;28;20609;-74
2022/11/27 13:58:14;;;;;;;17.83;13.63;;;;;;;;;;5048114;28;20420;-73
2022/11/27 14:00:41;;;;;;;28.33;20.65;;;;;;;;;;5034507;28;20039;-74
2022/11/27 14:03:19;;;;;;;19.83;13.00;;;;;;;;;;5068126;28;20032;-74
2022/11/27 14:05:45;;;;;;;10.32;8.73;;;;;;;;;;5068550;28;20039;-75
2022/11/27 14:08:23;;;;;;;16.13;12.07;;;;;;;;;;5068436;28;20036;-74
2022/11/27 14:10:59;;;;;;;20.35;9.30;;;;;;;;;;5068182;28;20035;-74
2022/11/27 14:13:43;;;;;;;20.98;15.25;;;;;;;;;;5051122;28;20040;-74
2022/11/27 14:16:23;;;;;;;25.00;17.50;;;;;;;;;;5068957;28;20090;-74
2022/11/27 14:18:51;;;;;;;12.77;10.45;;;;;;;;;;5051370;28;20566;-73
2022/11/27 14:21:24;;;;;;;15.32;9.65;;;;;;;;;;5050930;28;20547;-74
2022/11/27 14:23:50;;;;;;;12.40;9.20;;;;;;;;;;5067499;28;20040;-74
2022/11/27 14:26:25;;;;;;;14.23;10.80;;;;;;;;;;5068979;28;20028;-74
2022/11/27 14:28:53;;;;;;;12.90;10.30;;;;;;;;;;5034711;28;20504;-74
2022/11/27 14:31:26;;;;;;;13.55;9.63;;;;;;;;;;5034554;28;20040;-74
2022/11/27 14:33:53;;;;;;;15.68;10.25;;;;;;;;;;5046834;28;20127;-74
2022/11/27 14:36:22;;;;;;;15.30;12.02;;;;;;;;;;5033801;28;20115;-74
2022/11/27 14:38:49;;;;;;;14.55;9.45;;;;;;;;;;5052598;28;20405;-74
2022/11/27 14:41:15;;;;;;;18.50;11.82;;;;;;;;;;5071666;28;20083;-74
2022/11/27 14:43:42;;;;;;;16.52;12.55;;;;;;;;;;5073813;28;20064;-73
2022/11/27 14:46:19;;;;;;;8.18;7.15;;;;;;;;;;5070785;28;20032;-74
2022/11/27 14:48:47;;;;;;;19.23;13.18;;;;;;;;;;5056167;28;20035;-74
2022/11/27 14:51:16;;;;;;;9.50;8.52;;;;;;;;;;5038377;28;20136;-74